createdAt,value
2019-05-03T00:02:27.504Z,26.53
2019-05-03T00:05:18.522Z,27.03
2019-05-03T00:07:52.686Z,24.10
2019-05-03T00:10:24.937Z,25.43
2019-05-03T00:12:57.017Z,25.83
2019-05-03T00:15:52.219Z,23.73
2019-05-03T00:18:24.427Z,26.70
2019-05-03T00:20:56.461Z,26.00
2019-05-03T00:23:28.443Z,25.43
2019-05-03T00:26:02.689Z,25.10
2019-05-03T00:28:34.833Z,28.80
2019-05-03T00:31:06.839Z,25.33
2019-05-03T00:33:39.619Z,25.27
2019-05-03T00:36:32.952Z,26.23
2019-05-03T00:39:35.049Z,25.30
2019-05-03T00:42:07.045Z,26.40
2019-05-03T00:44:39.049Z,28.60
2019-05-03T00:47:12.571Z,28.80
2019-05-03T00:49:44.794Z,29.83
2019-05-03T00:52:16.829Z,30.87
2019-05-03T00:54:48.763Z,28.80
2019-05-03T00:57:22.586Z,30.57
2019-05-03T00:59:54.768Z,31.73
2019-05-03T01:02:26.810Z,31.37
2019-05-03T01:04:58.971Z,30.23
2019-05-03T01:07:31.826Z,30.57
2019-05-03T01:10:06.074Z,36.80
2019-05-03T01:12:38.032Z,34.30
2019-05-03T01:15:14.884Z,35.17
2019-05-03T01:17:47.374Z,34.83
2019-05-03T01:20:19.390Z,30.97
2019-05-03T01:22:51.902Z,32.73
2019-05-03T01:25:32.361Z,32.93
2019-05-03T01:27:57.780Z,31.50
2019-05-03T01:30:29.750Z,32.43
2019-05-03T01:33:02.837Z,34.13
2019-05-03T01:35:35.446Z,33.63
2019-05-03T01:38:07.433Z,31.77
2019-05-03T01:40:41.787Z,31.47
2019-05-03T01:43:13.688Z,33.57
2019-05-03T01:45:45.678Z,32.23
2019-05-03T01:48:35.299Z,32.67
2019-05-03T01:51:14.868Z,32.67
2019-05-03T01:53:48.564Z,32.43
2019-05-03T01:56:22.333Z,35.57
2019-05-03T01:58:54.554Z,35.90
2019-05-03T02:01:33.183Z,31.50
2019-05-03T02:04:12.267Z,32.67
2019-05-03T02:06:44.363Z,30.40
2019-05-03T02:09:16.309Z,30.03
2019-05-03T02:11:48.299Z,27.10
2019-05-03T02:14:22.066Z,23.03
2019-05-03T02:16:53.991Z,30.43
2019-05-03T02:19:26.033Z,33.27
2019-05-03T02:21:58.010Z,29.90
2019-05-03T02:24:30.382Z,33.63
2019-05-03T02:27:02.384Z,35.23
2019-05-03T02:29:34.344Z,32.03
2019-05-03T02:32:06.341Z,37.07
2019-05-03T02:34:38.339Z,31.83
2019-05-03T02:37:13.812Z,33.93
2019-05-03T02:39:44.744Z,32.40
2019-05-03T02:42:16.793Z,33.43
2019-05-03T02:44:48.874Z,31.80
2019-05-03T02:47:42.877Z,30.50
2019-05-03T02:50:17.405Z,28.03
2019-05-03T02:52:49.968Z,29.90
2019-05-03T02:55:21.994Z,39.93
2019-05-03T02:57:56.268Z,45.43
2019-05-03T03:01:02.953Z,41.27
2019-05-03T03:03:36.300Z,37.83
2019-05-03T03:06:08.781Z,41.00
2019-05-03T03:08:40.857Z,38.80
2019-05-03T03:11:15.370Z,41.20
2019-05-03T03:13:48.538Z,38.60
2019-05-03T03:16:24.988Z,37.70
2019-05-03T03:18:57.517Z,43.43
2019-05-03T03:21:36.084Z,43.33
2019-05-03T03:24:12.613Z,43.93
2019-05-03T03:26:47.208Z,44.63
2019-05-03T03:29:18.613Z,41.27
2019-05-03T03:32:29.303Z,37.10
2019-05-03T03:35:22.299Z,33.97
2019-05-03T03:37:55.919Z,40.17
2019-05-03T03:40:30.189Z,35.20
2019-05-03T03:43:05.424Z,35.50
2019-05-03T03:45:38.283Z,31.57
2019-05-03T03:48:11.681Z,29.67
2019-05-03T03:50:45.716Z,30.87
2019-05-03T03:53:19.654Z,31.07
2019-05-03T03:55:56.224Z,28.03
2019-05-03T03:58:27.330Z,31.50
2019-05-03T04:01:00.081Z,28.83
2019-05-03T04:03:32.027Z,31.37
2019-05-03T04:06:05.807Z,29.60
2019-05-03T04:08:38.454Z,34.60
2019-05-03T04:11:11.018Z,33.83
2019-05-03T04:13:45.245Z,33.73
2019-05-03T04:16:36.424Z,35.90
2019-05-03T04:19:17.391Z,37.17
2019-05-03T04:21:49.647Z,37.00
2019-05-03T04:24:21.606Z,34.17
2019-05-03T04:27:15.526Z,33.73
2019-05-03T04:29:41.390Z,34.37
2019-05-03T04:32:15.655Z,33.70
2019-05-03T04:34:47.094Z,31.60
2019-05-03T04:37:19.077Z,28.57
2019-05-03T04:39:51.264Z,38.67
2019-05-03T04:42:25.381Z,32.33
2019-05-03T04:44:56.953Z,29.90
2019-05-03T04:47:28.887Z,29.57
2019-05-03T04:50:00.859Z,34.43
2019-05-03T04:52:32.907Z,35.13
2019-05-03T04:55:06.551Z,35.40
2019-05-03T04:57:45.118Z,33.47
2019-05-03T05:00:12.782Z,36.27
2019-05-03T05:02:45.732Z,32.97
2019-05-03T05:05:18.239Z,34.10
2019-05-03T05:07:50.490Z,34.57
2019-05-03T05:10:22.444Z,33.80
2019-05-03T05:12:55.185Z,34.60
2019-05-03T05:15:27.400Z,37.33
2019-05-03T05:18:21.064Z,32.03
2019-05-03T05:21:01.747Z,36.30
2019-05-03T05:23:35.333Z,32.90
2019-05-03T05:26:15.997Z,35.20
2019-05-03T05:28:55.833Z,33.57
2019-05-03T05:31:27.876Z,34.20
2019-05-03T05:34:00.330Z,45.83
2019-05-03T05:36:32.290Z,29.97
2019-05-03T05:39:05.205Z,31.43
2019-05-03T05:41:37.298Z,34.50
2019-05-03T05:44:09.276Z,35.43
2019-05-03T05:46:48.250Z,34.47
2019-05-03T05:49:39.725Z,35.30
2019-05-03T05:52:11.688Z,36.47
2019-05-03T05:54:46.060Z,32.43
2019-05-03T05:57:34.650Z,32.93
2019-05-03T06:00:15.294Z,32.70
2019-05-03T06:02:47.406Z,30.27
2019-05-03T06:05:20.050Z,30.70
2019-05-03T06:08:08.908Z,33.40
2019-05-03T06:10:49.946Z,32.77
2019-05-03T06:13:34.417Z,33.37
2019-05-03T06:16:18.458Z,32.77
2019-05-03T06:19:05.836Z,39.03
2019-05-03T06:21:47.945Z,33.53
2019-05-03T06:24:26.652Z,33.83
2019-05-03T06:27:05.008Z,30.90
2019-05-03T06:29:37.178Z,29.60
2019-05-03T06:32:21.775Z,26.83
2019-05-03T06:34:54.614Z,26.73
2019-05-03T06:37:29.580Z,24.77
2019-05-03T06:40:01.548Z,27.57
2019-05-03T06:42:35.445Z,25.07
2019-05-03T06:45:11.498Z,25.80
2019-05-03T06:47:45.923Z,22.17
2019-05-03T06:50:19.532Z,24.00
2019-05-03T06:52:49.371Z,21.50
2019-05-03T06:55:21.319Z,18.77
2019-05-03T06:57:54.564Z,18.73
2019-05-03T07:00:38.069Z,21.70
2019-05-03T07:03:26.536Z,20.00
2019-05-03T07:06:16.239Z,21.43
2019-05-03T07:08:59.840Z,22.87
2019-05-03T07:11:31.853Z,20.70
2019-05-03T07:14:05.269Z,19.07
2019-05-03T07:16:37.413Z,20.17
2019-05-03T07:19:09.507Z,23.20
2019-05-03T07:21:41.507Z,20.00
2019-05-03T07:24:14.496Z,24.73
2019-05-03T07:26:45.828Z,20.83
2019-05-03T07:29:17.882Z,27.27
2019-05-03T07:31:49.809Z,24.30
2019-05-03T07:34:21.834Z,19.83
2019-05-03T07:36:55.510Z,24.97
2019-05-03T07:39:27.673Z,21.30
2019-05-03T07:42:00.113Z,23.53
2019-05-03T07:44:32.119Z,26.20
2019-05-03T07:47:04.838Z,30.50
2019-05-03T07:49:37.043Z,27.37
2019-05-03T07:52:11.759Z,22.90
2019-05-03T07:54:44.987Z,20.90
2019-05-03T07:57:35.688Z,23.60
2019-05-03T08:00:10.483Z,28.97
2019-05-03T08:02:44.627Z,24.37
2019-05-03T08:05:16.344Z,19.70
2019-05-03T08:07:48.515Z,19.57
2019-05-03T08:10:21.071Z,18.98
2019-05-03T08:12:54.409Z,15.30
2019-05-03T08:15:26.965Z,17.05
2019-05-03T08:17:59.036Z,19.23
2019-05-03T08:20:31.121Z,17.42
2019-05-03T08:23:05.124Z,20.97
2019-05-03T08:25:36.858Z,21.00
2019-05-03T08:28:09.074Z,18.15
2019-05-03T08:31:00.604Z,24.02
2019-05-03T08:34:06.425Z,20.82
2019-05-03T08:36:58.853Z,19.50
2019-05-03T08:39:31.018Z,30.43
2019-05-03T08:42:06.484Z,38.75
2019-05-03T08:44:38.724Z,27.20
2019-05-03T08:47:11.061Z,22.58
2019-05-03T08:49:45.030Z,23.73
2019-05-03T08:52:17.169Z,22.60
2019-05-03T08:54:49.183Z,18.53
2019-05-03T08:57:21.351Z,19.03
2019-05-03T08:59:54.935Z,23.60
2019-05-03T09:02:27.306Z,18.83
2019-05-03T09:04:59.491Z,21.13
2019-05-03T09:07:31.543Z,23.13
2019-05-03T09:10:13.549Z,21.13
2019-05-03T09:13:05.968Z,27.90
2019-05-03T09:15:37.305Z,26.00
2019-05-03T09:18:09.416Z,22.27
2019-05-03T09:20:41.492Z,22.47
2019-05-03T09:23:14.854Z,21.07
2019-05-03T09:25:47.239Z,19.97
2019-05-03T09:28:19.351Z,20.53
2019-05-03T09:30:51.485Z,19.50
2019-05-03T09:33:24.907Z,18.57
2019-05-03T09:35:57.169Z,25.37
2019-05-03T09:38:29.193Z,23.27
2019-05-03T09:41:01.205Z,22.50
2019-05-03T09:43:33.212Z,18.82
2019-05-03T09:46:05.269Z,21.12
2019-05-03T09:48:37.273Z,22.37
2019-05-03T09:51:09.253Z,21.40
2019-05-03T09:53:48.084Z,19.10
2019-05-03T09:56:44.612Z,23.75
2019-05-03T09:59:14.642Z,22.83
2019-05-03T10:01:46.332Z,18.83
2019-05-03T10:04:18.312Z,19.17
2019-05-03T10:06:50.368Z,15.97
2019-05-03T10:09:22.368Z,19.63
2019-05-03T10:11:55.213Z,10.87
2019-05-03T10:14:27.427Z,11.53
2019-05-03T10:17:08.739Z,10.33
2019-05-03T10:19:41.171Z,13.53
2019-05-03T10:22:15.447Z,8.80
2019-05-03T10:24:47.493Z,6.73
2019-05-03T10:27:19.569Z,8.20
2019-05-03T10:29:54.548Z,8.83
2019-05-03T10:32:32.470Z,8.40
2019-05-03T10:35:06.976Z,7.00
2019-05-03T10:37:38.965Z,7.17
2019-05-03T10:40:12.334Z,5.20
2019-05-03T10:42:44.648Z,6.23
2019-05-03T10:45:16.717Z,5.87
2019-05-03T10:47:48.762Z,6.50
2019-05-03T10:50:21.318Z,6.33
2019-05-03T10:52:59.544Z,8.13
2019-05-03T10:55:31.510Z,7.40
2019-05-03T10:58:19.832Z,7.67
2019-05-03T11:00:56.459Z,5.80
2019-05-03T11:03:27.244Z,6.20
2019-05-03T11:05:59.199Z,7.50
2019-05-03T11:08:31.183Z,7.00
2019-05-03T11:11:03.171Z,6.97
2019-05-03T11:13:35.217Z,7.87
2019-05-03T11:16:07.745Z,8.40
2019-05-03T11:18:39.697Z,10.03
2019-05-03T11:21:11.720Z,8.17
2019-05-03T11:23:45.013Z,6.70
2019-05-03T11:26:17.174Z,9.63
2019-05-03T11:28:49.208Z,8.03
2019-05-03T11:31:38.727Z,9.47
2019-05-03T11:34:15.131Z,8.10
2019-05-03T11:36:52.009Z,7.90
2019-05-03T11:39:25.100Z,9.37
2019-05-03T11:41:58.937Z,9.77
2019-05-03T11:44:40.129Z,8.77
2019-05-03T11:47:12.174Z,9.57
2019-05-03T11:49:45.388Z,7.53
2019-05-03T11:52:17.639Z,9.47
2019-05-03T11:54:50.325Z,7.63
2019-05-03T11:57:26.882Z,9.27
2019-05-03T11:59:58.914Z,11.87
2019-05-03T12:02:52.775Z,9.23
2019-05-03T12:05:29.270Z,9.03
2019-05-03T12:08:01.272Z,8.53
2019-05-03T12:10:50.815Z,9.03
2019-05-03T12:13:15.634Z,10.20
2019-05-03T12:15:47.046Z,6.73
2019-05-03T12:18:19.418Z,7.10
2019-05-03T12:20:52.516Z,5.47
2019-05-03T12:23:26.098Z,6.13
2019-05-03T12:25:59.240Z,9.27
2019-05-03T12:28:31.732Z,12.87
2019-05-03T12:31:04.897Z,8.27
2019-05-03T12:33:37.062Z,9.43
2019-05-03T12:36:09.417Z,17.87
2019-05-03T12:38:41.384Z,12.90
2019-05-03T12:41:15.041Z,9.50
2019-05-03T12:43:48.789Z,11.20
2019-05-03T12:46:21.018Z,8.70
2019-05-03T12:48:53.006Z,9.43
2019-05-03T12:51:25.519Z,9.00
2019-05-03T12:53:57.683Z,18.37
2019-05-03T12:56:32.559Z,15.97
2019-05-03T12:59:09.261Z,9.40
2019-05-03T13:02:06.171Z,9.10
2019-05-03T13:04:38.949Z,10.53
2019-05-03T13:07:18.157Z,14.50
2019-05-03T13:09:50.101Z,15.57
2019-05-03T13:12:25.334Z,14.37
2019-05-03T13:14:57.633Z,12.53
2019-05-03T13:17:36.947Z,15.47
2019-05-03T13:20:11.552Z,12.93
2019-05-03T13:22:45.791Z,10.23
2019-05-03T13:25:18.804Z,9.87
2019-05-03T13:27:50.786Z,8.90
2019-05-03T13:30:24.962Z,13.27
2019-05-03T13:32:56.692Z,14.97
2019-05-03T13:35:28.695Z,22.83
2019-05-03T13:38:00.954Z,21.83
2019-05-03T13:40:33.042Z,20.50
2019-05-03T13:43:06.558Z,26.90
2019-05-03T13:45:38.781Z,32.03
2019-05-03T13:48:10.801Z,34.53
2019-05-03T13:50:44.616Z,28.43
2019-05-03T13:53:16.520Z,22.50
2019-05-03T13:55:48.476Z,17.93
2019-05-03T13:58:20.499Z,18.47
2019-05-03T14:00:54.711Z,17.30
2019-05-03T14:03:26.214Z,13.67
2019-05-03T14:05:58.225Z,14.57
2019-05-03T14:08:30.204Z,16.70
2019-05-03T14:11:02.188Z,17.50
2019-05-03T14:13:35.436Z,16.67
2019-05-03T14:16:07.883Z,18.50
2019-05-03T14:18:41.426Z,16.97
2019-05-03T14:21:21.891Z,15.83
2019-05-03T14:24:11.232Z,18.07
2019-05-03T14:26:44.761Z,17.97
2019-05-03T14:29:16.993Z,17.53
2019-05-03T14:31:48.976Z,17.30
2019-05-03T14:34:20.998Z,17.97
2019-05-03T14:36:53.037Z,16.17
2019-05-03T14:39:26.724Z,20.27
2019-05-03T14:41:59.108Z,21.83
2019-05-03T14:44:31.147Z,20.23
2019-05-03T14:47:05.611Z,23.50
2019-05-03T14:49:36.907Z,21.80
2019-05-03T14:52:10.106Z,18.30
2019-05-03T14:54:45.084Z,19.10
2019-05-03T14:57:35.091Z,20.60
2019-05-03T15:00:30.168Z,17.77
2019-05-03T15:03:10.748Z,20.20
2019-05-03T15:05:42.712Z,24.27
2019-05-03T15:08:14.992Z,18.80
2019-05-03T15:10:47.118Z,19.50
2019-05-03T15:13:19.138Z,20.83
2019-05-03T15:15:51.303Z,18.67
2019-05-03T15:18:25.398Z,19.47
2019-05-03T15:20:57.006Z,17.80
2019-05-03T15:23:29.084Z,17.97
2019-05-03T15:26:01.341Z,21.23
2019-05-03T15:28:35.375Z,19.97
2019-05-03T15:31:07.050Z,15.17
2019-05-03T15:33:39.197Z,17.23
2019-05-03T15:36:11.332Z,18.10
2019-05-03T15:38:44.778Z,18.80
2019-05-03T15:41:16.813Z,18.20
2019-05-03T15:43:57.498Z,20.87
2019-05-03T15:46:54.636Z,18.97
2019-05-03T15:49:27.746Z,15.20
2019-05-03T15:52:00.733Z,16.30
2019-05-03T15:54:32.737Z,14.97
2019-05-03T15:57:05.153Z,16.93
2019-05-03T15:59:37.311Z,14.87
2019-05-03T16:02:09.313Z,13.03
2019-05-03T16:04:41.309Z,15.33
2019-05-03T16:07:14.443Z,13.97
2019-05-03T16:09:46.495Z,14.33
2019-05-03T16:12:18.472Z,14.10
2019-05-03T16:14:50.492Z,14.30
2019-05-03T16:17:24.373Z,20.37
2019-05-03T16:19:56.189Z,25.10
2019-05-03T16:22:28.245Z,20.70
2019-05-03T16:25:00.597Z,22.80
2019-05-03T16:27:51.495Z,24.07
2019-05-03T16:30:51.229Z,20.37
2019-05-03T16:33:27.609Z,21.83
2019-05-03T16:35:56.999Z,24.07
2019-05-03T16:38:29.045Z,21.47
2019-05-03T16:41:01.280Z,21.23
2019-05-03T16:43:34.814Z,23.17
2019-05-03T16:46:06.995Z,23.43
2019-05-03T16:48:39.020Z,26.63
2019-05-03T16:51:11.401Z,22.47
2019-05-03T16:53:44.474Z,23.27
2019-05-03T16:56:17.105Z,26.65
2019-05-03T16:58:49.371Z,24.57
2019-05-03T17:01:21.482Z,23.93
2019-05-03T17:03:58.871Z,23.03
2019-05-03T17:06:59.111Z,25.17
2019-05-03T17:09:59.128Z,28.30
2019-05-03T17:12:32.058Z,25.83
2019-05-03T17:15:05.079Z,29.13
2019-05-03T17:17:37.077Z,25.33
2019-05-03T17:20:10.371Z,27.60
2019-05-03T17:22:42.336Z,30.60
2019-05-03T17:25:15.053Z,29.70
2019-05-03T17:27:47.200Z,37.63
2019-05-03T17:30:19.403Z,36.43
2019-05-03T17:32:51.448Z,32.23
2019-05-03T17:35:25.103Z,36.63
2019-05-03T17:37:57.331Z,35.57
2019-05-03T17:40:46.670Z,38.20
2019-05-03T17:43:26.598Z,40.03
2019-05-03T17:45:59.520Z,39.53
2019-05-03T17:48:31.579Z,42.13
2019-05-03T17:51:04.443Z,42.53
2019-05-03T17:53:55.490Z,42.43
2019-05-03T17:56:46.363Z,50.73
2019-05-03T17:59:24.470Z,55.10
2019-05-03T18:02:24.525Z,40.97
2019-05-03T18:05:15.405Z,46.73
2019-05-03T18:08:06.251Z,43.67
2019-05-03T18:10:39.677Z,53.17
2019-05-03T18:13:11.710Z,54.00
2019-05-03T18:15:44.921Z,53.97
2019-05-03T18:18:16.979Z,57.80
2019-05-03T18:20:48.992Z,50.60
2019-05-03T18:23:21.287Z,60.47
2019-05-03T18:25:54.795Z,60.20
2019-05-03T18:28:26.913Z,60.10
2019-05-03T18:30:58.889Z,63.67
2019-05-03T18:33:31.309Z,58.17
2019-05-03T18:36:05.446Z,63.23
2019-05-03T18:38:40.387Z,62.87
2019-05-03T18:41:13.499Z,64.40
2019-05-03T18:44:19.605Z,58.17
2019-05-03T18:46:56.878Z,57.50
2019-05-03T18:49:28.887Z,65.27
2019-05-03T18:52:01.284Z,65.03
2019-05-03T18:54:34.928Z,66.23
2019-05-03T18:57:07.207Z,66.27
2019-05-03T18:59:39.239Z,68.03
2019-05-03T19:02:11.248Z,72.70
2019-05-03T19:04:55.044Z,72.20
2019-05-03T19:07:45.251Z,67.73
2019-05-03T19:10:28.979Z,70.73
2019-05-03T19:13:23.416Z,81.77
2019-05-03T19:15:55.675Z,82.37
2019-05-03T19:18:36.087Z,80.93
2019-05-03T19:21:08.170Z,68.80
2019-05-03T19:23:41.140Z,77.90
2019-05-03T19:26:14.471Z,75.17
2019-05-03T19:28:46.621Z,77.03
2019-05-03T19:31:18.812Z,73.73
2019-05-03T19:33:50.794Z,75.10
2019-05-03T19:36:22.832Z,84.13
2019-05-03T19:38:54.895Z,82.33
2019-05-03T19:41:27.125Z,78.07
2019-05-03T19:43:59.127Z,95.40
2019-05-03T19:46:31.216Z,80.90
2019-05-03T19:49:04.907Z,81.93
2019-05-03T19:51:37.101Z,80.30
2019-05-03T19:54:09.083Z,73.67
2019-05-03T19:56:41.245Z,74.67
2019-05-03T19:59:15.398Z,76.50
2019-05-03T20:02:04.528Z,82.63
2019-05-03T20:05:01.486Z,71.30
2019-05-03T20:07:57.133Z,73.47
2019-05-03T20:10:31.019Z,81.33
2019-05-03T20:13:04.653Z,79.93
2019-05-03T20:15:37.001Z,74.40
2019-05-03T20:18:09.042Z,87.17
2019-05-03T20:20:41.193Z,77.10
2019-05-03T20:23:14.658Z,77.73
2019-05-03T20:25:46.754Z,76.13
2019-05-03T20:28:18.759Z,77.80
2019-05-03T20:30:51.194Z,73.00
2019-05-03T20:33:24.609Z,69.73
2019-05-03T20:35:56.866Z,72.93
2019-05-03T20:38:28.929Z,71.43
2019-05-03T20:41:01.289Z,71.03
2019-05-03T20:43:50.559Z,70.03
2019-05-03T20:46:33.116Z,69.60
2019-05-03T20:49:07.888Z,72.77
2019-05-03T20:51:40.599Z,73.13
2019-05-03T20:54:12.725Z,71.90
2019-05-03T20:56:45.642Z,72.20
2019-05-03T20:59:17.753Z,69.60
2019-05-03T21:01:50.304Z,67.40
2019-05-03T21:04:22.421Z,72.33
2019-05-03T21:06:56.074Z,67.63
2019-05-03T21:09:28.216Z,69.10
2019-05-03T21:12:00.326Z,75.77
2019-05-03T21:14:32.301Z,72.77
2019-05-03T21:17:21.304Z,80.27
2019-05-03T21:20:01.816Z,72.33
2019-05-03T21:22:38.252Z,71.87
2019-05-03T21:25:15.497Z,69.80
2019-05-03T21:27:47.529Z,66.40
2019-05-03T21:30:20.125Z,68.77
2019-05-03T21:32:52.133Z,64.27
2019-05-03T21:35:26.273Z,66.20
2019-05-03T21:37:57.850Z,70.27
2019-05-03T21:40:29.847Z,65.77
2019-05-03T21:43:01.889Z,63.10
2019-05-03T21:45:40.489Z,58.77
2019-05-03T21:48:17.239Z,59.20
2019-05-03T21:50:49.632Z,58.00
2019-05-03T21:53:21.598Z,55.50
2019-05-03T21:55:53.604Z,56.67
2019-05-03T21:58:25.599Z,56.37
2019-05-03T22:01:05.099Z,54.23
2019-05-03T22:03:37.394Z,57.03
2019-05-03T22:06:09.323Z,55.77
2019-05-03T22:08:41.301Z,55.93
2019-05-03T22:11:14.871Z,51.60
2019-05-03T22:13:48.745Z,57.53
2019-05-03T22:16:34.837Z,53.87
2019-05-03T22:19:06.912Z,62.77
2019-05-03T22:21:40.880Z,57.80
2019-05-03T22:24:44.710Z,68.23
2019-05-03T22:27:19.573Z,66.60
2019-05-03T22:29:51.578Z,63.57
2019-05-03T22:32:24.484Z,62.27
2019-05-03T22:34:57.233Z,65.17
2019-05-03T22:37:29.228Z,70.37
2019-05-03T22:40:01.327Z,68.97
2019-05-03T22:42:34.587Z,71.13
2019-05-03T22:45:06.660Z,66.67
2019-05-03T22:47:38.623Z,64.83
2019-05-03T22:50:11.287Z,70.93
2019-05-03T22:52:45.357Z,72.77
2019-05-03T22:55:16.933Z,66.47
2019-05-03T22:57:48.947Z,63.70
2019-05-03T23:00:21.147Z,64.67
2019-05-03T23:02:54.762Z,63.83
2019-05-03T23:05:26.876Z,69.27
2019-05-03T23:07:58.852Z,64.73
2019-05-03T23:10:30.867Z,63.90
2019-05-03T23:13:04.929Z,67.03
2019-05-03T23:15:36.513Z,67.73
2019-05-03T23:18:08.476Z,66.47
2019-05-03T23:21:02.349Z,67.60
2019-05-03T23:23:50.278Z,63.10
2019-05-03T23:26:22.278Z,52.87
2019-05-03T23:28:55.105Z,55.00
2019-05-03T23:31:27.237Z,54.37
2019-05-03T23:33:59.239Z,62.83
2019-05-03T23:36:33.693Z,67.63
2019-05-03T23:39:07.281Z,67.13
2019-05-03T23:41:39.281Z,59.20
2019-05-03T23:44:11.350Z,60.77
2019-05-03T23:47:10.968Z,63.40
2019-05-03T23:49:44.621Z,60.27
2019-05-03T23:52:35.968Z,54.13
2019-05-03T23:55:27.968Z,59.80
2019-05-03T23:57:59.935Z,68.17
